createdAt,value
2022-08-01T00:00:06.825Z,20.70
2022-08-01T00:01:06.101Z,20.70
2022-08-01T00:02:06.335Z,20.72
2022-08-01T00:03:06.090Z,20.75
2022-08-01T00:04:06.076Z,20.74
2022-08-01T00:05:06.101Z,20.72
2022-08-01T00:06:06.093Z,20.75
2022-08-01T00:07:06.064Z,20.75
2022-08-01T00:08:06.051Z,20.72
2022-08-01T00:09:06.061Z,20.66
2022-08-01T00:10:06.176Z,20.69
2022-08-01T00:11:06.034Z,20.63
2022-08-01T00:12:06.041Z,20.72
2022-08-01T00:13:06.008Z,20.72
2022-08-01T00:14:06.023Z,20.63
2022-08-01T00:15:06.022Z,20.72
2022-08-01T00:16:06.048Z,20.74
2022-08-01T00:17:07.608Z,20.74
2022-08-01T00:18:06.998Z,20.77
2022-08-01T00:19:05.990Z,20.66
2022-08-01T00:20:06.372Z,20.66
2022-08-01T00:21:05.999Z,20.69
2022-08-01T00:22:07.331Z,20.65
2022-08-01T00:23:05.956Z,20.69
2022-08-01T00:24:05.931Z,20.74
2022-08-01T00:25:05.946Z,20.70
2022-08-01T00:26:05.938Z,20.58
2022-08-01T00:27:05.936Z,20.63
2022-08-01T00:28:05.959Z,20.62
2022-08-01T00:29:11.506Z,20.70
2022-08-01T00:30:14.012Z,20.60
2022-08-01T00:31:06.891Z,20.55
2022-08-01T00:32:06.111Z,20.55
2022-08-01T00:33:05.903Z,20.47
2022-08-01T00:34:05.886Z,20.39
2022-08-01T00:35:05.889Z,20.40
2022-08-01T00:36:05.900Z,20.37
2022-08-01T00:37:05.862Z,20.29
2022-08-01T00:38:05.845Z,20.39
2022-08-01T00:39:05.831Z,20.37
2022-08-01T00:40:05.823Z,20.39
2022-08-01T00:41:05.879Z,20.43
2022-08-01T00:42:06.037Z,20.41
2022-08-01T00:43:05.833Z,20.50
2022-08-01T00:44:05.777Z,20.39
2022-08-01T00:45:05.813Z,20.34
2022-08-01T00:46:05.824Z,20.52
2022-08-01T00:47:05.773Z,20.48
2022-08-01T00:48:05.778Z,20.47
2022-08-01T00:49:05.807Z,20.44
2022-08-01T00:50:05.755Z,20.41
2022-08-01T00:51:06.344Z,20.48
2022-08-01T00:52:06.739Z,20.50
2022-08-01T00:53:05.740Z,20.47
2022-08-01T00:54:05.736Z,20.47
2022-08-01T00:55:05.716Z,20.51
2022-08-01T00:56:05.743Z,20.47
2022-08-01T00:57:10.207Z,20.44
2022-08-01T00:58:06.747Z,20.44
2022-08-01T00:59:06.680Z,20.43
2022-08-01T01:00:06.338Z,20.50
2022-08-01T01:01:06.522Z,20.39
2022-08-01T01:02:14.531Z,20.50
2022-08-01T01:03:06.637Z,20.34
2022-08-01T01:04:08.641Z,20.41
2022-08-01T01:05:05.680Z,20.50
2022-08-01T01:06:05.665Z,20.40
2022-08-01T01:07:05.635Z,20.32
2022-08-01T01:08:05.621Z,20.39
2022-08-01T01:09:06.355Z,20.37
2022-08-01T01:10:05.620Z,20.36
2022-08-01T01:11:05.598Z,20.37
2022-08-01T01:12:05.846Z,20.41
2022-08-01T01:13:05.567Z,20.37
2022-08-01T01:14:05.562Z,20.28
2022-08-01T01:15:06.518Z,20.19
2022-08-01T01:16:05.589Z,20.29
2022-08-01T01:17:05.539Z,20.22
2022-08-01T01:18:05.516Z,20.24
2022-08-01T01:19:05.523Z,20.14
2022-08-01T01:20:05.510Z,20.14
2022-08-01T01:21:05.512Z,20.09
2022-08-01T01:22:06.702Z,20.09
2022-08-01T01:23:05.528Z,20.11
2022-08-01T01:24:05.481Z,20.07
2022-08-01T01:25:06.357Z,20.11
2022-08-01T01:26:05.459Z,20.06
2022-08-01T01:27:05.457Z,20.07
2022-08-01T01:28:05.551Z,20.04
2022-08-01T01:29:06.376Z,20.13
2022-08-01T01:30:05.471Z,20.02
2022-08-01T01:31:05.432Z,19.99
2022-08-01T01:32:05.670Z,20.16
2022-08-01T01:33:06.420Z,20.00
2022-08-01T01:34:05.409Z,20.02
2022-08-01T01:35:06.367Z,19.92
2022-08-01T01:36:07.502Z,19.89
2022-08-01T01:37:06.434Z,19.92
2022-08-01T01:38:05.403Z,19.95
2022-08-01T01:39:05.365Z,19.89
2022-08-01T01:40:05.380Z,20.06
2022-08-01T01:41:05.359Z,19.99
2022-08-01T01:42:05.651Z,19.91
2022-08-01T01:43:05.349Z,19.91
2022-08-01T01:44:05.370Z,19.95
2022-08-01T02:02:47.460Z,19.88
2022-08-01T02:03:47.365Z,19.76
2022-08-01T02:04:47.411Z,19.82
2022-08-01T02:05:48.529Z,19.82
2022-08-01T02:06:48.541Z,19.76
2022-08-01T02:07:48.625Z,19.74
2022-08-01T02:08:48.463Z,19.76
2022-08-01T02:09:48.477Z,19.70
2022-08-01T02:10:48.494Z,19.66
2022-08-01T02:12:07.635Z,19.69
2022-08-01T02:12:49.438Z,19.64
2022-08-01T02:14:20.470Z,19.54
2022-08-01T02:14:48.543Z,19.64
2022-08-01T02:15:59.400Z,19.51
2022-08-01T02:16:49.444Z,19.49
2022-08-01T02:17:50.076Z,19.55
2022-08-01T02:18:48.436Z,19.54
2022-08-01T02:19:48.484Z,19.49
2022-08-01T02:20:48.518Z,19.52
2022-08-01T02:21:48.978Z,19.45
2022-08-01T02:22:49.093Z,19.48
2022-08-01T02:23:48.348Z,19.55
2022-08-01T02:24:48.352Z,19.44
2022-08-01T02:26:10.470Z,19.48
2022-08-01T02:26:49.329Z,19.34
2022-08-01T02:27:49.346Z,19.49
2022-08-01T02:28:48.337Z,19.36
2022-08-01T02:29:48.313Z,19.44
2022-08-01T02:30:48.354Z,19.41
2022-08-01T02:31:48.520Z,19.37
2022-08-01T02:32:48.303Z,19.41
2022-08-01T02:33:48.284Z,19.27
2022-08-01T02:34:48.276Z,19.29
2022-08-01T02:36:30.585Z,19.24
2022-08-01T02:36:49.289Z,19.26
2022-08-01T02:37:48.243Z,19.24
2022-08-01T02:38:48.247Z,19.15
2022-08-01T02:39:48.229Z,19.27
2022-08-01T02:40:49.219Z,19.11
2022-08-01T02:41:48.240Z,19.15
2022-08-01T02:42:48.310Z,19.12
2022-08-01T02:43:53.227Z,19.11
2022-08-01T02:44:50.124Z,19.04
2022-08-01T02:45:48.193Z,18.96
2022-08-01T02:46:48.991Z,19.00
2022-08-01T02:47:49.102Z,19.08
2022-08-01T02:48:48.203Z,18.95
2022-08-01T02:49:53.263Z,19.04
2022-08-01T02:50:49.207Z,19.02
2022-08-01T02:51:48.191Z,18.95
2022-08-01T02:52:48.161Z,18.96
2022-08-01T02:53:48.134Z,18.95
2022-08-01T02:54:48.142Z,18.92
2022-08-01T02:55:48.124Z,18.92
2022-08-01T02:56:48.127Z,18.86
2022-08-01T02:57:52.397Z,18.98
2022-08-01T02:58:49.124Z,18.96
2022-08-01T02:59:48.116Z,18.95
2022-08-01T03:00:48.573Z,18.98
2022-08-01T03:01:48.150Z,19.04
2022-08-01T03:02:48.084Z,19.11
2022-08-01T03:03:48.097Z,18.95
2022-08-01T03:04:48.144Z,19.02
2022-08-01T03:05:48.067Z,19.04
2022-08-01T03:06:48.067Z,19.12
2022-08-01T03:07:48.630Z,19.16
2022-08-01T03:08:48.067Z,19.16
2022-08-01T03:09:48.016Z,19.21
2022-08-01T03:10:48.045Z,19.21
2022-08-01T03:11:48.000Z,19.14
2022-08-01T03:12:48.223Z,19.24
2022-08-01T03:13:48.002Z,19.22
2022-08-01T03:14:47.999Z,19.24
2022-08-01T03:15:47.982Z,19.29
2022-08-01T03:16:47.955Z,19.36
2022-08-01T03:17:47.953Z,19.37
2022-08-01T03:18:47.934Z,19.34
2022-08-01T03:19:47.958Z,19.36
2022-08-01T03:20:47.948Z,19.40
2022-08-01T03:21:47.923Z,19.41
2022-08-01T03:22:47.917Z,19.44
2022-08-01T03:24:19.832Z,19.37
2022-08-01T03:24:47.898Z,19.40
2022-08-01T03:26:19.829Z,19.44
2022-08-01T03:26:47.890Z,19.55
2022-08-01T03:27:47.914Z,19.49
2022-08-01T03:28:47.870Z,19.41
2022-08-01T03:29:47.858Z,19.44
2022-08-01T03:30:47.882Z,19.40
2022-08-01T03:31:47.841Z,19.39
2022-08-01T03:32:47.848Z,19.31
2022-08-01T03:33:47.838Z,19.40
2022-08-01T03:34:47.830Z,19.40
2022-08-01T03:35:47.826Z,19.34
2022-08-01T03:36:47.811Z,19.36
2022-08-01T03:38:14.308Z,19.52
2022-08-01T03:38:49.796Z,19.44
2022-08-01T03:39:47.778Z,19.47
2022-08-01T03:40:47.774Z,19.40
2022-08-01T03:41:52.558Z,19.52
2022-08-01T03:42:49.761Z,19.44
2022-08-01T03:43:47.752Z,19.47
2022-08-01T03:44:47.748Z,19.62
2022-08-01T03:45:47.745Z,19.58
2022-08-01T04:01:32.930Z,19.29
2022-08-01T04:02:32.726Z,19.22
2022-08-01T04:03:32.719Z,19.31
2022-08-01T04:04:33.726Z,19.27
2022-08-01T04:05:32.706Z,19.31
2022-08-01T04:06:32.693Z,19.37
2022-08-01T04:07:33.831Z,19.41
2022-08-01T04:08:33.836Z,19.36
2022-08-01T04:09:33.806Z,19.41
2022-08-01T04:10:33.900Z,19.44
2022-08-01T04:11:33.793Z,19.44
2022-08-01T04:12:33.798Z,19.36
2022-08-01T04:13:37.329Z,19.37
2022-08-01T04:14:33.778Z,19.44
2022-08-01T04:15:33.752Z,19.34
2022-08-01T04:16:33.789Z,19.34
2022-08-01T04:17:33.747Z,19.44
2022-08-01T04:18:33.739Z,19.40
2022-08-01T04:19:33.721Z,19.31
2022-08-01T04:20:33.777Z,19.29
2022-08-01T04:21:33.729Z,19.34
2022-08-01T04:22:37.479Z,19.39
2022-08-01T04:23:33.699Z,19.45
2022-08-01T04:24:33.763Z,19.39
2022-08-01T04:25:33.693Z,19.54
2022-08-01T04:26:33.707Z,19.47
2022-08-01T04:27:50.580Z,19.34
2022-08-01T04:28:34.667Z,19.37
2022-08-01T04:29:33.713Z,19.33
2022-08-01T04:30:33.652Z,19.19
2022-08-01T04:31:33.652Z,19.22
2022-08-01T04:32:33.633Z,19.19
2022-08-01T04:33:33.608Z,19.24
2022-08-01T04:34:33.624Z,19.14
2022-08-01T04:36:02.130Z,19.14
2022-08-01T04:36:34.628Z,19.08
2022-08-01T04:37:33.597Z,19.15
2022-08-01T04:38:33.584Z,19.18
2022-08-01T04:39:33.598Z,19.16
2022-08-01T04:40:34.567Z,19.24
2022-08-01T04:41:33.578Z,19.27
2022-08-01T04:42:33.729Z,19.22
2022-08-01T04:43:33.562Z,19.27
2022-08-01T04:44:33.540Z,19.31
2022-08-01T04:45:33.537Z,19.36
2022-08-01T04:46:33.576Z,19.31
2022-08-01T04:47:33.520Z,19.36
2022-08-01T04:48:33.549Z,19.24
2022-08-01T04:49:33.614Z,19.26
2022-08-01T04:50:34.512Z,19.26
2022-08-01T04:51:33.490Z,19.15
2022-08-01T04:52:34.486Z,19.33
2022-08-01T04:53:33.522Z,19.36
2022-08-01T04:54:33.470Z,19.31
2022-08-01T04:55:33.468Z,19.37
2022-08-01T04:56:33.453Z,19.31
2022-08-01T04:57:33.465Z,19.33
2022-08-01T04:58:33.463Z,19.39
2022-08-01T04:59:33.457Z,19.51
2022-08-01T05:00:33.455Z,19.33
2022-08-01T05:01:33.478Z,19.37
2022-08-01T05:02:33.401Z,19.49
2022-08-01T05:03:38.410Z,19.52
2022-08-01T05:04:35.395Z,19.55
2022-08-01T05:05:33.459Z,19.54
2022-08-01T05:06:33.375Z,19.56
2022-08-01T05:07:33.365Z,19.55
2022-08-01T05:08:34.377Z,19.58
2022-08-01T05:09:33.376Z,19.56
2022-08-01T05:10:33.341Z,19.51
2022-08-01T05:11:33.353Z,19.55
2022-08-01T05:12:33.359Z,19.47
2022-08-01T05:13:33.337Z,19.52
2022-08-01T05:14:33.338Z,19.69
2022-08-01T05:15:33.357Z,19.67
2022-08-01T05:16:33.312Z,19.70
2022-08-01T05:17:33.296Z,19.70
2022-08-01T05:18:33.309Z,19.73
2022-08-01T05:19:33.288Z,19.67
2022-08-01T05:20:33.289Z,19.84
2022-08-01T05:21:33.304Z,19.74
2022-08-01T05:22:33.287Z,19.74
2022-08-01T05:23:42.302Z,19.81
2022-08-01T05:24:34.254Z,19.66
2022-08-01T05:25:57.831Z,19.84
2022-08-01T05:26:34.251Z,19.77
2022-08-01T05:27:33.234Z,19.81
2022-08-01T05:28:33.221Z,19.89
2022-08-01T05:29:33.219Z,19.82
2022-08-01T05:30:33.209Z,19.86
2022-08-01T05:31:33.262Z,19.81
2022-08-01T05:32:33.176Z,19.82
2022-08-01T05:33:33.182Z,19.79
2022-08-01T05:34:33.161Z,19.70
2022-08-01T05:35:48.365Z,19.71
2022-08-01T05:36:34.176Z,19.81
2022-08-01T05:37:33.167Z,19.76
2022-08-01T05:38:33.166Z,19.70
2022-08-01T05:39:33.145Z,19.79
2022-08-01T05:40:33.137Z,19.74
2022-08-01T05:41:33.121Z,19.63
2022-08-01T05:42:33.162Z,19.58
2022-08-01T05:43:33.138Z,19.59
2022-08-01T05:44:33.120Z,19.69
2022-08-01T05:45:33.079Z,19.45
2022-08-01T05:46:33.080Z,19.59
2022-08-01T05:47:33.083Z,19.47
2022-08-01T05:48:33.076Z,19.55
2022-08-01T05:49:33.126Z,19.51
2022-08-01T05:50:33.180Z,19.44
2022-08-01T05:51:33.077Z,19.44
2022-08-01T05:52:33.031Z,19.62
2022-08-01T05:53:33.079Z,19.69
2022-08-01T05:54:33.018Z,19.58
2022-08-01T05:55:33.012Z,19.67
2022-08-01T05:56:32.994Z,19.67
2022-08-01T05:57:33.029Z,19.74
2022-08-01T05:58:33.029Z,19.81
2022-08-01T05:59:32.980Z,19.88
2022-08-01T06:00:32.963Z,19.85
2022-08-01T06:01:32.963Z,19.79
2022-08-01T06:02:33.017Z,19.74
2022-08-01T06:03:32.965Z,19.74
2022-08-01T06:04:32.948Z,19.91
2022-08-01T06:05:32.942Z,19.86
2022-08-01T06:06:32.947Z,19.84
2022-08-01T06:07:32.959Z,19.92
2022-08-01T06:08:32.923Z,20.00
2022-08-01T06:09:32.908Z,19.99
2022-08-01T06:10:32.995Z,20.04
2022-08-01T06:11:32.883Z,20.09
2022-08-01T06:12:35.623Z,20.24
2022-08-01T06:13:33.885Z,20.31
2022-08-01T06:14:33.870Z,20.24
2022-08-01T06:15:32.912Z,20.40
2022-08-01T06:16:32.970Z,20.41
2022-08-01T06:17:32.846Z,20.43
2022-08-01T06:18:32.831Z,20.50
2022-08-01T06:19:32.842Z,20.66
2022-08-01T06:20:32.840Z,20.81
2022-08-01T06:21:32.820Z,20.72
2022-08-01T06:22:32.796Z,20.67
2022-08-01T06:23:33.801Z,20.70
2022-08-01T06:24:32.815Z,20.67
2022-08-01T06:25:32.924Z,20.78
2022-08-01T06:26:32.811Z,20.70
2022-08-01T06:27:32.778Z,20.66
2022-08-01T06:28:32.759Z,20.75
2022-08-01T06:29:32.769Z,20.74
2022-08-01T06:30:32.754Z,20.80
2022-08-01T06:31:33.920Z,20.84
2022-08-01T06:32:33.769Z,20.81
2022-08-01T06:33:32.737Z,20.77
2022-08-01T06:34:32.731Z,20.82
2022-08-01T06:35:33.506Z,20.80
2022-08-01T06:36:32.742Z,20.85
2022-08-01T06:37:32.753Z,21.07
2022-08-01T06:38:32.702Z,21.12
2022-08-01T06:39:32.682Z,21.15
2022-08-01T06:40:32.671Z,21.60
2022-08-01T06:41:32.673Z,21.77
2022-08-01T06:42:32.695Z,21.92
2022-08-01T06:43:32.677Z,22.25
2022-08-01T06:44:32.645Z,22.43
2022-08-01T06:45:32.653Z,22.47
2022-08-01T06:46:32.700Z,22.47
2022-08-01T06:47:32.653Z,22.53
2022-08-01T06:48:32.633Z,22.59
2022-08-01T06:49:32.637Z,22.59
2022-08-01T06:50:32.595Z,22.59
2022-08-01T06:51:32.588Z,22.59
2022-08-01T06:52:32.606Z,22.59
2022-08-01T06:53:36.349Z,22.66
2022-08-01T06:54:33.565Z,22.63
2022-08-01T06:55:32.553Z,22.57
2022-08-01T06:56:32.552Z,22.68
2022-08-01T06:57:32.533Z,22.75
2022-08-01T06:58:32.562Z,22.78
2022-08-01T06:59:32.583Z,22.81
2022-08-01T07:00:32.579Z,23.03
2022-08-01T07:01:35.238Z,23.00
2022-08-01T07:02:32.507Z,23.05
2022-08-01T07:03:53.853Z,23.18
2022-08-01T07:04:33.506Z,23.23
2022-08-01T07:05:32.565Z,23.34
2022-08-01T07:06:32.478Z,23.56
2022-08-01T07:07:32.523Z,23.65
2022-08-01T07:08:32.474Z,23.84
2022-08-01T07:09:32.478Z,24.58
2022-08-01T07:10:32.486Z,24.63
2022-08-01T07:11:32.461Z,24.78
2022-08-01T07:12:32.489Z,24.77
2022-08-01T07:13:36.782Z,24.80
2022-08-01T07:14:33.423Z,24.66
2022-08-01T07:15:32.411Z,24.80
2022-08-01T07:16:32.413Z,24.91
2022-08-01T07:17:32.420Z,25.22
2022-08-01T07:18:32.394Z,25.91
2022-08-01T07:19:32.384Z,26.53
2022-08-01T07:20:37.987Z,26.65
2022-08-01T07:21:40.308Z,26.68
2022-08-01T07:22:33.373Z,26.21
2022-08-01T07:23:34.036Z,26.06
2022-08-01T07:24:32.363Z,25.83
2022-08-01T07:25:32.334Z,25.68
2022-08-01T07:26:32.348Z,25.33
2022-08-01T07:27:32.325Z,25.33
2022-08-01T07:28:32.354Z,25.18
2022-08-01T07:29:32.316Z,25.17
2022-08-01T07:30:32.300Z,25.53
2022-08-01T07:31:32.580Z,25.90
2022-08-01T07:32:33.483Z,26.00
2022-08-01T07:33:49.306Z,26.29
2022-08-01T07:34:33.281Z,26.13
2022-08-01T07:35:32.277Z,25.81
2022-08-01T07:36:32.254Z,25.73
2022-08-01T07:37:45.294Z,25.33
2022-08-01T07:38:33.233Z,25.26
2022-08-01T07:39:32.244Z,24.98
2022-08-01T07:40:32.256Z,24.78
2022-08-01T07:41:53.195Z,24.60
2022-08-01T07:42:33.239Z,24.42
2022-08-01T07:43:32.239Z,24.08
2022-08-01T07:44:32.191Z,23.66
2022-08-01T07:45:32.192Z,23.37
2022-08-01T07:46:32.288Z,23.15
2022-08-01T07:47:32.172Z,22.96
2022-08-01T07:48:32.182Z,22.91
2022-08-01T07:49:34.951Z,22.90
2022-08-01T07:50:34.295Z,22.96
2022-08-01T07:51:32.145Z,23.00
2022-08-01T07:52:32.160Z,22.98
2022-08-01T07:53:32.150Z,23.08
2022-08-01T07:54:33.880Z,23.12
2022-08-01T07:55:33.137Z,23.32
2022-08-01T07:56:32.208Z,23.28
2022-08-01T07:57:32.257Z,23.23
2022-08-01T07:58:32.102Z,23.32
2022-08-01T07:59:32.119Z,23.83
2022-08-01T08:00:32.113Z,24.28
2022-08-01T08:01:32.167Z,24.16
2022-08-01T08:02:32.175Z,24.01
2022-08-01T08:03:32.061Z,23.81
2022-08-01T08:04:32.046Z,24.03
2022-08-01T08:05:57.929Z,24.60
2022-08-01T08:06:33.054Z,24.70
2022-08-01T08:07:32.083Z,25.35
2022-08-01T08:08:32.014Z,25.06
2022-08-01T08:09:32.017Z,25.17
2022-08-01T08:10:32.997Z,25.38
2022-08-01T08:11:31.999Z,26.05
2022-08-01T08:12:32.071Z,26.52
2022-08-01T08:14:03.901Z,26.99
2022-08-01T08:14:32.478Z,26.51
2022-08-01T08:15:31.970Z,26.02
2022-08-01T08:16:31.978Z,25.73
2022-08-01T08:17:35.613Z,25.69
2022-08-01T08:18:31.953Z,25.58
2022-08-01T08:19:37.597Z,25.72
2022-08-01T08:20:32.956Z,26.09
2022-08-01T08:21:31.933Z,26.03
2022-08-01T08:22:31.935Z,26.34
2022-08-01T08:23:42.954Z,26.16
2022-08-01T08:24:33.446Z,26.75
2022-08-01T08:25:31.912Z,27.30
2022-08-01T08:26:31.895Z,27.32
2022-08-01T08:27:31.902Z,26.45
2022-08-01T08:28:31.905Z,25.69
2022-08-01T08:29:31.865Z,25.21
2022-08-01T08:30:31.864Z,25.03
2022-08-01T08:31:52.021Z,25.01
2022-08-01T08:32:32.859Z,25.04
2022-08-01T08:33:31.862Z,24.78
2022-08-01T08:34:31.880Z,25.04
2022-08-01T08:35:53.828Z,25.21
2022-08-01T08:36:32.834Z,24.85
2022-08-01T08:37:31.804Z,24.92
2022-08-01T08:38:32.805Z,24.54
2022-08-01T08:39:31.814Z,24.51
2022-08-01T08:40:32.821Z,24.33
2022-08-01T08:41:37.696Z,24.24
2022-08-01T08:42:32.777Z,24.33
2022-08-01T08:43:31.771Z,24.36
2022-08-01T08:44:32.519Z,24.48
2022-08-01T08:45:59.731Z,24.47
2022-08-01T08:46:32.760Z,24.54
2022-08-01T08:47:31.750Z,24.61
2022-08-01T08:48:31.730Z,24.45
2022-08-01T08:49:35.892Z,24.36
2022-08-01T08:50:31.731Z,24.32
2022-08-01T08:51:31.709Z,24.40
2022-08-01T08:52:31.737Z,24.55
2022-08-01T08:53:34.767Z,24.68
2022-08-01T08:54:31.895Z,24.81
2022-08-01T08:55:31.710Z,24.61
2022-08-01T08:56:31.699Z,24.68
2022-08-01T08:57:31.677Z,25.06
2022-08-01T08:58:32.008Z,26.13
2022-08-01T08:59:31.655Z,26.56
2022-08-01T09:00:31.666Z,27.36
2022-08-01T09:01:31.642Z,28.04
2022-08-01T09:02:31.624Z,27.93
2022-08-01T09:03:31.721Z,27.42
2022-08-01T09:04:31.628Z,27.48
2022-08-01T09:05:39.324Z,27.32
2022-08-01T09:06:32.663Z,26.45
2022-08-01T09:07:32.093Z,26.21
2022-08-01T09:08:31.606Z,25.84
2022-08-01T09:09:31.577Z,25.41
2022-08-01T09:10:31.565Z,24.89
2022-08-01T09:11:31.573Z,24.98
2022-08-01T09:12:31.623Z,25.07
2022-08-01T09:13:31.554Z,25.21
2022-08-01T09:14:31.614Z,25.84
2022-08-01T09:15:33.846Z,26.51
2022-08-01T09:16:31.537Z,27.18
2022-08-01T09:17:31.548Z,27.51
2022-08-01T09:18:31.517Z,27.80
2022-08-01T09:19:39.652Z,27.60
2022-08-01T09:20:32.496Z,27.92
2022-08-01T09:21:31.485Z,28.05
2022-08-01T09:22:31.482Z,27.96
2022-08-01T09:23:31.500Z,28.15
2022-08-01T09:24:31.495Z,28.88
2022-08-01T09:25:31.478Z,28.75
2022-08-01T09:26:32.465Z,28.94
2022-08-01T09:27:31.464Z,28.81
2022-08-01T09:28:31.459Z,29.19
2022-08-01T09:29:37.461Z,29.56
2022-08-01T09:30:32.478Z,29.65
2022-08-01T09:31:38.460Z,29.59
2022-08-01T09:32:36.503Z,29.35
2022-08-01T09:33:36.872Z,28.64
2022-08-01T09:34:32.422Z,28.63
2022-08-01T09:35:36.002Z,29.26
2022-08-01T09:36:33.411Z,29.32
2022-08-01T09:37:37.212Z,29.41
2022-08-01T09:38:32.404Z,29.56
2022-08-01T09:39:31.370Z,29.90
2022-08-01T09:40:31.389Z,29.39
2022-08-01T09:41:39.991Z,29.26
2022-08-01T09:42:32.368Z,29.78
2022-08-01T09:43:31.933Z,30.24
2022-08-01T09:44:42.297Z,30.96
2022-08-01T09:45:41.795Z,31.64
2022-08-01T09:46:32.357Z,31.00
2022-08-01T09:47:31.322Z,29.76
2022-08-01T09:48:32.084Z,29.01
2022-08-01T09:49:50.711Z,28.57
2022-08-01T09:50:32.306Z,28.22
2022-08-01T09:51:59.202Z,27.90
2022-08-01T09:52:32.283Z,27.77
2022-08-01T09:53:31.275Z,27.42
2022-08-01T09:54:32.318Z,26.58
2022-08-01T09:55:31.306Z,26.44
2022-08-01T09:56:31.283Z,26.07
2022-08-01T09:57:31.250Z,26.41
2022-08-01T09:58:31.258Z,26.23
2022-08-01T09:59:40.981Z,26.07
2022-08-01T10:00:44.187Z,25.91
2022-08-01T10:01:36.813Z,26.02
2022-08-01T10:02:31.249Z,25.81
2022-08-01T10:03:31.286Z,25.51
2022-08-01T10:04:31.224Z,25.41
2022-08-01T10:05:31.281Z,25.33
2022-08-01T10:06:32.188Z,25.31
2022-08-01T10:07:43.659Z,25.18
2022-08-01T10:08:32.180Z,24.99
2022-08-01T10:09:39.947Z,24.93
2022-08-01T10:10:33.068Z,24.96
2022-08-01T10:11:36.226Z,25.63
2022-08-01T10:12:32.154Z,26.33
2022-08-01T10:13:36.728Z,26.95
2022-08-01T10:14:32.143Z,27.86
2022-08-01T10:15:37.322Z,28.45
2022-08-01T10:16:32.124Z,28.57
2022-08-01T10:17:50.810Z,28.91
2022-08-01T10:18:33.061Z,27.90
2022-08-01T10:19:31.145Z,27.77
2022-08-01T10:20:32.216Z,28.11
2022-08-01T10:21:56.407Z,28.11
2022-08-01T10:22:32.089Z,28.42
2022-08-01T10:23:40.237Z,28.29
2022-08-01T10:24:33.401Z,28.08
2022-08-01T10:25:41.793Z,28.38
2022-08-01T10:26:32.144Z,28.54
2022-08-01T10:27:38.077Z,28.94
2022-08-01T10:28:32.063Z,29.31
2022-08-01T10:29:59.139Z,29.22
2022-08-01T10:30:32.070Z,29.26
2022-08-01T10:31:31.165Z,29.65
2022-08-01T10:32:31.050Z,29.57
2022-08-01T10:33:51.822Z,29.94
2022-08-01T10:34:32.003Z,30.03
2022-08-01T10:35:45.706Z,30.72
2022-08-01T10:36:32.027Z,31.03
2022-08-01T10:37:31.041Z,31.03
2022-08-01T10:38:30.962Z,30.40
2022-08-01T10:39:30.972Z,30.09
2022-08-01T10:40:31.414Z,29.87
2022-08-01T10:41:33.098Z,29.98
2022-08-01T10:42:30.951Z,30.24
2022-08-01T10:43:30.985Z,30.12
2022-08-01T10:44:30.923Z,29.86
2022-08-01T10:45:30.930Z,29.61
2022-08-01T10:46:31.581Z,29.63
2022-08-01T10:47:50.825Z,29.23
2022-08-01T10:48:31.919Z,29.13
2022-08-01T10:49:31.712Z,29.10
2022-08-01T10:50:30.914Z,29.65
2022-08-01T10:51:51.500Z,29.90
2022-08-01T10:52:34.458Z,30.23
2022-08-01T10:53:42.571Z,30.68
2022-08-01T10:54:31.850Z,30.61
2022-08-01T10:55:30.888Z,30.40
2022-08-01T10:56:30.866Z,30.28
2022-08-01T10:57:30.845Z,29.84
2022-08-01T10:58:30.867Z,29.35
2022-08-01T10:59:49.788Z,28.84
2022-08-01T11:00:31.838Z,28.66
2022-08-01T11:01:31.472Z,28.67
2022-08-01T11:02:32.115Z,28.91
2022-08-01T11:03:55.667Z,28.69
2022-08-01T11:04:32.822Z,28.70
2022-08-01T11:05:30.818Z,28.86
2022-08-01T11:06:30.784Z,28.75
2022-08-01T11:07:34.956Z,28.49
2022-08-01T11:08:30.764Z,28.72
2022-08-01T11:09:37.002Z,28.72
2022-08-01T11:10:31.800Z,29.26
2022-08-01T11:11:37.378Z,29.71
2022-08-01T11:12:31.878Z,29.53
2022-08-01T11:13:32.381Z,29.95
2022-08-01T11:14:54.770Z,30.10
2022-08-01T11:15:32.728Z,30.39
2022-08-01T11:16:30.717Z,30.39
2022-08-01T11:17:31.468Z,30.39
2022-08-01T11:18:31.715Z,30.85
2022-08-01T11:19:30.723Z,30.57
2022-08-01T11:20:30.671Z,30.69
2022-08-01T11:21:59.415Z,30.87
2022-08-01T11:22:31.717Z,31.27
2022-08-01T11:23:35.974Z,31.42
2022-08-01T11:24:31.690Z,31.43
2022-08-01T11:26:06.409Z,31.81
2022-08-01T11:26:31.664Z,31.81
2022-08-01T11:27:31.491Z,32.12
2022-08-01T11:28:34.800Z,31.92
2022-08-01T11:29:32.612Z,31.87
2022-08-01T11:30:30.621Z,31.55
2022-08-01T11:31:30.627Z,31.37
2022-08-01T11:32:42.430Z,30.65
2022-08-01T11:33:31.598Z,30.35
2022-08-01T11:34:30.608Z,30.02
2022-08-01T11:35:30.613Z,29.78
2022-08-01T11:36:55.849Z,29.47
2022-08-01T11:37:32.614Z,29.27
2022-08-01T11:38:30.584Z,29.10
2022-08-01T11:39:31.280Z,28.66
2022-08-01T11:40:30.551Z,28.67
2022-08-01T11:41:38.491Z,28.82
2022-08-01T11:42:31.575Z,28.59
2022-08-01T11:43:30.535Z,28.70
2022-08-01T11:44:30.975Z,28.78
2022-08-01T11:45:30.544Z,29.04
2022-08-01T11:46:30.515Z,29.17
2022-08-01T11:47:30.569Z,29.47
2022-08-01T11:48:32.117Z,29.98
2022-08-01T11:49:30.517Z,30.12
2022-08-01T11:50:30.481Z,29.88
2022-08-01T11:51:30.482Z,29.91
2022-08-01T11:52:30.669Z,30.15
2022-08-01T11:53:30.474Z,30.32
2022-08-01T11:54:35.583Z,29.94
2022-08-01T11:55:32.176Z,29.47
2022-08-01T11:56:30.451Z,29.59
2022-08-01T11:57:34.637Z,29.45
2022-08-01T11:58:31.598Z,29.50
2022-08-01T11:59:37.197Z,29.32
2022-08-01T12:00:31.422Z,29.01
2022-08-01T12:01:30.463Z,29.13
2022-08-01T12:02:31.104Z,29.20
2022-08-01T12:03:33.670Z,29.26
2022-08-01T12:04:30.379Z,29.38
2022-08-01T12:05:31.439Z,29.19
2022-08-01T12:06:30.390Z,28.96
2022-08-01T12:07:30.374Z,28.85
2022-08-01T12:08:30.361Z,28.52
2022-08-01T12:09:30.351Z,28.74
2022-08-01T12:10:30.340Z,28.81
2022-08-01T12:11:37.074Z,28.81
2022-08-01T12:12:31.341Z,28.88
2022-08-01T12:13:30.350Z,28.89
2022-08-01T12:14:30.345Z,29.04
2022-08-01T12:15:30.329Z,28.75
2022-08-01T12:16:33.197Z,28.75
2022-08-01T12:17:30.306Z,29.22
2022-08-01T12:18:30.311Z,29.42
2022-08-01T12:19:30.288Z,29.88
2022-08-01T12:20:31.147Z,29.91
2022-08-01T12:21:32.165Z,30.02
2022-08-01T12:22:30.281Z,30.06
2022-08-01T12:23:30.291Z,30.10
2022-08-01T12:24:30.265Z,30.34
2022-08-01T12:25:30.257Z,30.27
2022-08-01T12:26:32.238Z,30.63
2022-08-01T12:27:30.239Z,30.96
2022-08-01T12:28:30.256Z,31.00
2022-08-01T12:29:30.224Z,31.02
2022-08-01T12:30:30.220Z,30.83
2022-08-01T12:31:30.259Z,30.69
2022-08-01T12:32:35.675Z,30.30
2022-08-01T12:33:31.184Z,29.98
2022-08-01T12:34:30.190Z,29.86
2022-08-01T12:35:30.200Z,29.65
2022-08-01T12:36:30.169Z,29.63
2022-08-01T12:37:30.179Z,29.32
2022-08-01T12:38:30.184Z,29.14
2022-08-01T12:39:30.183Z,29.17
2022-08-01T12:40:30.207Z,29.49
2022-08-01T12:41:30.150Z,29.68
2022-08-01T12:42:30.121Z,29.86
2022-08-01T12:43:30.127Z,29.93
2022-08-01T12:44:30.116Z,30.03
2022-08-01T12:45:30.132Z,30.23
2022-08-01T12:46:30.117Z,30.70
2022-08-01T12:47:30.117Z,31.10
2022-08-01T12:48:31.104Z,31.39
2022-08-01T12:49:30.177Z,31.61
2022-08-01T12:50:30.111Z,30.97
2022-08-01T12:51:30.061Z,30.78
2022-08-01T12:52:30.082Z,30.54
2022-08-01T12:53:40.862Z,30.66
2022-08-01T12:54:31.047Z,30.70
2022-08-01T12:55:34.154Z,30.25
2022-08-01T12:56:30.057Z,30.06
2022-08-01T12:57:30.106Z,30.00
2022-08-01T12:58:30.019Z,29.91
2022-08-01T12:59:30.015Z,30.16
2022-08-01T13:00:30.003Z,30.37
2022-08-01T13:01:30.075Z,30.50
2022-08-01T13:02:30.008Z,30.68
2022-08-01T13:03:30.005Z,30.88
2022-08-01T13:04:29.972Z,30.83
2022-08-01T13:05:29.972Z,30.84
2022-08-01T13:06:29.962Z,30.54
2022-08-01T13:07:32.645Z,30.35
2022-08-01T13:08:30.962Z,30.35
2022-08-01T13:09:29.953Z,29.90
2022-08-01T13:10:29.935Z,29.44
2022-08-01T13:11:29.927Z,29.45
2022-08-01T13:12:29.940Z,29.45
2022-08-01T13:13:29.940Z,29.63
2022-08-01T13:14:29.937Z,29.53
2022-08-01T13:15:29.884Z,29.81
2022-08-01T13:16:55.187Z,30.19
2022-08-01T13:17:31.920Z,30.57
2022-08-01T13:18:29.879Z,30.75
2022-08-01T13:19:29.907Z,30.59
2022-08-01T13:20:29.879Z,30.77
2022-08-01T13:21:29.866Z,31.18
2022-08-01T13:22:30.862Z,31.21
2022-08-01T13:24:03.605Z,31.00
2022-08-01T13:24:30.853Z,30.92